createdAt,value
2023-05-05T00:01:22.196Z,70
2023-05-05T00:03:01.953Z,70
2023-05-05T00:04:41.728Z,70
2023-05-05T00:06:21.504Z,70
2023-05-05T00:08:01.248Z,70
2023-05-05T00:09:41.018Z,70
2023-05-05T00:11:20.805Z,70
2023-05-05T00:13:00.547Z,70
2023-05-05T00:14:40.347Z,69
2023-05-05T00:16:20.112Z,70
2023-05-05T00:17:59.857Z,70
2023-05-05T00:19:39.644Z,69
2023-05-05T00:21:19.463Z,69
2023-05-05T00:22:59.178Z,69
2023-05-05T00:24:38.974Z,69
2023-05-05T00:26:18.699Z,69
2023-05-05T00:27:58.464Z,69
2023-05-05T00:29:38.233Z,69
2023-05-05T00:31:17.993Z,69
2023-05-05T00:32:57.778Z,69
2023-05-05T00:34:37.534Z,69
2023-05-05T00:36:17.310Z,69
2023-05-05T00:37:57.069Z,69
2023-05-05T00:39:36.834Z,69
2023-05-05T00:41:16.603Z,69
2023-05-05T00:42:56.385Z,69
2023-05-05T00:44:36.152Z,68
2023-05-05T00:46:15.919Z,69
2023-05-05T00:47:55.670Z,69
2023-05-05T00:49:35.452Z,69
2023-05-05T00:51:15.220Z,68
2023-05-05T00:52:54.984Z,69
2023-05-05T00:54:34.743Z,68
2023-05-05T00:56:14.538Z,68
2023-05-05T00:57:54.281Z,68
2023-05-05T00:59:34.055Z,68
2023-05-05T01:01:13.824Z,68
2023-05-05T01:02:53.591Z,68
2023-05-05T01:04:33.356Z,68
2023-05-05T01:06:13.119Z,68
2023-05-05T01:07:52.905Z,68
2023-05-05T01:09:32.672Z,68
2023-05-05T01:11:12.433Z,68
2023-05-05T01:12:52.191Z,68
2023-05-05T01:14:31.963Z,68
2023-05-05T01:16:11.722Z,67
2023-05-05T01:17:51.491Z,68
2023-05-05T01:19:31.257Z,68
2023-05-05T01:21:11.032Z,68
2023-05-05T01:22:50.805Z,68
2023-05-05T01:24:30.562Z,68
2023-05-05T01:26:10.334Z,67
2023-05-05T01:27:50.098Z,67
2023-05-05T01:29:29.881Z,67
2023-05-05T01:31:09.678Z,68
2023-05-05T01:32:49.392Z,67
2023-05-05T01:34:29.172Z,67
2023-05-05T01:36:08.930Z,67
2023-05-05T01:37:48.700Z,67
2023-05-05T01:39:28.467Z,67
2023-05-05T01:41:08.252Z,67
2023-05-05T01:42:48.019Z,67
2023-05-05T01:44:27.764Z,67
2023-05-05T01:46:07.543Z,67
2023-05-05T01:47:47.310Z,67
2023-05-05T01:49:27.074Z,67
2023-05-05T01:51:06.879Z,67
2023-05-05T01:52:46.617Z,67
2023-05-05T01:54:26.376Z,67
2023-05-05T01:56:06.146Z,67
2023-05-05T01:57:45.908Z,67
2023-05-05T01:59:25.674Z,66
2023-05-05T02:01:05.442Z,66
2023-05-05T02:02:45.201Z,67
2023-05-05T02:04:24.967Z,66
2023-05-05T02:06:04.740Z,66
2023-05-05T02:07:44.504Z,66
2023-05-05T02:09:24.266Z,66
2023-05-05T02:11:04.060Z,66
2023-05-05T02:12:43.813Z,66
2023-05-05T02:14:23.578Z,66
2023-05-05T02:16:03.369Z,66
2023-05-05T02:17:43.114Z,66
2023-05-05T02:19:22.896Z,66
2023-05-05T02:21:02.638Z,66
2023-05-05T02:22:42.421Z,66
2023-05-05T02:24:22.196Z,66
2023-05-05T02:26:01.967Z,66
2023-05-05T02:27:41.732Z,66
2023-05-05T02:29:21.499Z,66
2023-05-05T02:31:01.268Z,66
2023-05-05T02:32:41.043Z,66
2023-05-05T02:34:20.799Z,66
2023-05-05T02:36:00.569Z,66
2023-05-05T02:37:40.320Z,65
2023-05-05T02:39:20.099Z,66
2023-05-05T02:40:59.856Z,66
2023-05-05T02:42:39.817Z,65
2023-05-05T02:44:19.400Z,65
2023-05-05T02:45:59.175Z,65
2023-05-05T02:47:38.986Z,65
2023-05-05T02:49:18.705Z,65
2023-05-05T02:50:58.469Z,65
2023-05-05T02:52:38.287Z,65
2023-05-05T02:54:17.995Z,65
2023-05-05T02:55:57.773Z,65
2023-05-05T02:57:37.591Z,65
2023-05-05T02:59:17.323Z,65
2023-05-05T03:00:57.077Z,65
2023-05-05T03:02:36.840Z,65
2023-05-05T03:04:16.602Z,65
2023-05-05T03:05:56.398Z,65
2023-05-05T03:07:36.142Z,65
2023-05-05T03:09:15.924Z,64
2023-05-05T03:10:55.694Z,65
2023-05-05T03:12:35.446Z,65
2023-05-05T03:14:15.222Z,64
2023-05-05T03:15:54.972Z,64
2023-05-05T03:17:34.747Z,64
2023-05-05T03:19:14.518Z,64
2023-05-05T03:20:54.292Z,64
2023-05-05T03:22:34.045Z,64
2023-05-05T03:24:13.819Z,64
2023-05-05T03:25:53.577Z,64
2023-05-05T03:27:33.342Z,64
2023-05-05T03:29:13.118Z,64
2023-05-05T03:30:52.877Z,64
2023-05-05T03:32:32.649Z,64
2023-05-05T03:34:12.413Z,64
2023-05-05T03:35:52.183Z,65
2023-05-05T03:37:31.957Z,65
2023-05-05T03:39:11.723Z,65
2023-05-05T03:40:51.487Z,65
2023-05-05T03:42:31.250Z,65
2023-05-05T03:44:11.029Z,65
2023-05-05T03:45:50.789Z,65
2023-05-05T03:47:30.571Z,65
2023-05-05T03:49:10.322Z,65
2023-05-05T03:50:50.096Z,65
2023-05-05T03:52:29.850Z,65
2023-05-05T03:54:09.633Z,63
2023-05-05T03:55:49.385Z,58
2023-05-05T03:57:29.157Z,52
2023-05-05T03:59:08.932Z,46
2023-05-05T04:00:48.717Z,40
2023-05-05T04:02:28.464Z,34
2023-05-05T04:04:08.240Z,30
2023-05-05T04:05:48.015Z,30
2023-05-05T04:07:27.782Z,31
2023-05-05T04:09:07.547Z,31
2023-05-05T04:10:47.327Z,31
2023-05-05T04:12:27.089Z,31
2023-05-05T04:14:06.860Z,32
2023-05-05T04:15:46.630Z,32
2023-05-05T04:17:26.428Z,32
2023-05-05T04:19:06.183Z,33
2023-05-05T04:20:45.975Z,33
2023-05-05T04:22:25.732Z,33
2023-05-05T04:24:05.502Z,34
2023-05-05T04:25:45.273Z,34
2023-05-05T04:27:25.027Z,34
2023-05-05T04:29:04.804Z,35
2023-05-05T04:30:44.564Z,35
2023-05-05T04:32:24.350Z,35
2023-05-05T04:34:04.117Z,36
2023-05-05T04:35:43.890Z,37
2023-05-05T04:37:23.656Z,37
2023-05-05T04:39:03.423Z,37
2023-05-05T04:40:43.233Z,38
2023-05-05T04:42:22.969Z,38
2023-05-05T04:44:02.741Z,39
2023-05-05T04:45:42.505Z,40
2023-05-05T04:47:22.273Z,40
2023-05-05T04:49:02.055Z,41
2023-05-05T04:50:41.822Z,42
2023-05-05T04:52:21.596Z,43
2023-05-05T04:54:01.347Z,44
2023-05-05T04:55:41.117Z,45
2023-05-05T04:57:20.897Z,47
2023-05-05T04:59:00.670Z,48
2023-05-05T05:00:40.675Z,49
2023-05-05T05:02:20.227Z,49
2023-05-05T05:03:59.980Z,50
2023-05-05T05:05:39.747Z,51
2023-05-05T05:07:19.513Z,51
2023-05-05T05:08:59.290Z,54
2023-05-05T05:10:39.083Z,60
2023-05-05T05:12:18.845Z,66
2023-05-05T05:13:58.621Z,72
2023-05-05T05:15:38.364Z,78
2023-05-05T05:17:18.141Z,84
2023-05-05T05:18:57.909Z,90
2023-05-05T05:20:37.747Z,91
2023-05-05T05:22:17.448Z,91
2023-05-05T05:23:57.209Z,91
2023-05-05T05:25:36.988Z,91
2023-05-05T05:27:16.750Z,91
2023-05-05T05:28:56.521Z,92
2023-05-05T05:30:36.309Z,92
2023-05-05T05:32:16.065Z,92
2023-05-05T05:33:55.842Z,92
2023-05-05T05:35:35.620Z,92
2023-05-05T05:37:15.380Z,92
2023-05-05T05:38:55.148Z,92
2023-05-05T05:40:34.998Z,92
2023-05-05T05:42:14.687Z,92
2023-05-05T05:43:54.455Z,92
2023-05-05T05:45:34.227Z,93
2023-05-05T05:47:14.009Z,93
2023-05-05T05:48:53.772Z,93
2023-05-05T05:50:33.536Z,93
2023-05-05T05:52:13.318Z,93
2023-05-05T05:53:53.085Z,93
2023-05-05T05:55:32.866Z,93
2023-05-05T05:57:12.649Z,93
2023-05-05T05:58:52.390Z,93
2023-05-05T06:00:32.164Z,93
2023-05-05T06:02:11.933Z,94
2023-05-05T06:03:51.736Z,93
2023-05-05T06:05:31.563Z,94
2023-05-05T06:07:11.243Z,94
2023-05-05T06:08:51.022Z,94
2023-05-05T06:10:30.790Z,94
2023-05-05T06:12:10.557Z,94
2023-05-05T06:13:50.348Z,94
2023-05-05T06:15:30.152Z,94
2023-05-05T06:17:09.889Z,94
2023-05-05T06:18:49.637Z,94
2023-05-05T06:20:29.433Z,95
2023-05-05T06:22:09.195Z,95
2023-05-05T06:23:48.945Z,95
2023-05-05T06:25:28.707Z,95
2023-05-05T06:27:08.500Z,95
2023-05-05T06:28:48.268Z,95
2023-05-05T06:30:28.030Z,95
2023-05-05T06:32:07.801Z,95
2023-05-05T06:33:47.569Z,95
2023-05-05T06:35:27.393Z,95
2023-05-05T06:37:07.112Z,95
2023-05-05T06:38:46.891Z,95
2023-05-05T06:40:26.734Z,96
2023-05-05T06:42:06.453Z,96
2023-05-05T06:43:46.186Z,96
2023-05-05T06:45:25.970Z,96
2023-05-05T06:47:05.742Z,96
2023-05-05T06:48:45.505Z,96
2023-05-05T06:50:25.268Z,96
2023-05-05T06:52:05.043Z,96
2023-05-05T06:53:44.815Z,97
2023-05-05T06:55:24.596Z,96
2023-05-05T06:57:04.448Z,96
2023-05-05T06:58:44.144Z,97
2023-05-05T07:00:23.917Z,97
2023-05-05T07:02:03.672Z,97
2023-05-05T07:03:43.446Z,97
2023-05-05T07:05:23.221Z,97
2023-05-05T07:07:02.978Z,97
2023-05-05T07:08:42.750Z,97
2023-05-05T07:10:22.534Z,97
2023-05-05T07:12:02.305Z,97
2023-05-05T07:13:42.074Z,97
2023-05-05T07:15:21.843Z,98
2023-05-05T07:17:01.804Z,97
2023-05-05T07:18:41.532Z,97
2023-05-05T07:20:21.143Z,98
2023-05-05T07:22:01.135Z,98
2023-05-05T07:23:40.827Z,98
2023-05-05T07:25:20.669Z,98
2023-05-05T07:27:00.394Z,98
2023-05-05T07:28:40.009Z,98
2023-05-05T07:30:19.802Z,98
2023-05-05T07:31:59.689Z,98
2023-05-05T07:33:39.427Z,99
2023-05-05T07:35:19.189Z,99
2023-05-05T07:36:59.001Z,98
2023-05-05T07:38:38.773Z,99
2023-05-05T07:40:18.412Z,99
2023-05-05T07:41:58.303Z,99
2023-05-05T07:43:37.942Z,99
2023-05-05T07:45:17.796Z,99
2023-05-05T07:46:57.480Z,99
2023-05-05T07:48:37.243Z,99
2023-05-05T07:50:17.023Z,100
2023-05-05T07:51:56.784Z,100
2023-05-05T07:53:36.703Z,100
2023-05-05T07:55:16.391Z,100
2023-05-05T07:56:56.104Z,100
2023-05-05T07:58:35.882Z,100
2023-05-05T08:00:15.635Z,100
2023-05-05T08:01:55.395Z,100
2023-05-05T08:03:35.178Z,100
2023-05-05T08:05:14.960Z,100
2023-05-05T08:06:54.714Z,100
2023-05-05T08:08:34.500Z,100
2023-05-05T08:10:14.259Z,100
2023-05-05T08:11:54.028Z,100
2023-05-05T08:13:33.807Z,100
2023-05-05T08:15:13.564Z,100
2023-05-05T08:16:53.348Z,100
2023-05-05T08:18:33.129Z,100
2023-05-05T08:20:12.884Z,100
2023-05-05T08:21:52.669Z,100
2023-05-05T08:23:32.414Z,100
2023-05-05T08:25:12.190Z,100
2023-05-05T08:26:51.963Z,100
2023-05-05T08:28:31.741Z,100
2023-05-05T08:30:11.509Z,100
2023-05-05T08:31:51.309Z,100
2023-05-05T08:33:31.157Z,100
2023-05-05T08:35:10.821Z,100
2023-05-05T08:36:50.581Z,100
2023-05-05T08:38:30.356Z,100
2023-05-05T08:40:10.156Z,100
2023-05-05T08:41:49.898Z,100
2023-05-05T08:43:29.681Z,100
2023-05-05T08:45:09.434Z,100
2023-05-05T08:46:49.206Z,100
2023-05-05T08:48:29.060Z,100
2023-05-05T08:50:08.740Z,100
2023-05-05T08:51:48.544Z,100
2023-05-05T08:53:28.290Z,100
2023-05-05T08:55:08.046Z,100
2023-05-05T08:56:47.830Z,100
2023-05-05T08:58:27.594Z,100
2023-05-05T09:00:07.389Z,100
2023-05-05T09:01:47.191Z,100
2023-05-05T09:03:26.907Z,100
2023-05-05T09:05:06.676Z,100
2023-05-05T09:06:46.463Z,100
2023-05-05T09:08:26.236Z,100
2023-05-05T09:10:05.990Z,100
2023-05-05T09:11:45.751Z,100
2023-05-05T09:13:25.574Z,100
2023-05-05T09:15:05.292Z,100
2023-05-05T09:16:45.062Z,100
2023-05-05T09:18:24.848Z,100
2023-05-05T09:20:04.624Z,100
2023-05-05T09:21:44.481Z,100
2023-05-05T09:23:24.151Z,100
2023-05-05T09:25:03.912Z,100
2023-05-05T09:26:43.715Z,100
2023-05-05T09:28:23.463Z,100
2023-05-05T09:30:03.267Z,100
2023-05-05T09:31:43.010Z,100
2023-05-05T09:33:22.849Z,100
2023-05-05T09:35:02.545Z,100
2023-05-05T09:36:42.389Z,100
2023-05-05T09:38:22.092Z,100
2023-05-05T09:40:01.866Z,100
2023-05-05T09:41:41.627Z,100
2023-05-05T09:43:21.406Z,100
2023-05-05T09:45:01.165Z,100
2023-05-05T09:46:40.988Z,100
2023-05-05T09:48:20.715Z,100
2023-05-05T09:50:00.468Z,100
2023-05-05T09:51:40.249Z,100
2023-05-05T09:53:20.044Z,100
2023-05-05T09:54:59.871Z,100
2023-05-05T09:56:39.688Z,100
2023-05-05T09:58:19.398Z,100
2023-05-05T09:59:59.269Z,100
2023-05-05T10:01:39.016Z,100
2023-05-05T10:03:18.746Z,100
2023-05-05T10:04:58.513Z,100
2023-05-05T10:06:38.184Z,100
2023-05-05T10:08:17.959Z,100
2023-05-05T10:09:57.910Z,100
2023-05-05T10:11:37.642Z,100
2023-05-05T10:13:17.342Z,100
2023-05-05T10:14:57.169Z,100
2023-05-05T10:16:36.959Z,100
2023-05-05T10:18:16.686Z,100
2023-05-05T10:19:56.476Z,100
2023-05-05T10:21:36.097Z,100
2023-05-05T10:23:15.927Z,100
2023-05-05T10:24:55.787Z,100
2023-05-05T10:26:35.418Z,100
2023-05-05T10:28:15.195Z,100
2023-05-05T10:29:55.094Z,100
2023-05-05T10:31:34.800Z,100
2023-05-05T10:33:14.520Z,100
2023-05-05T10:34:54.283Z,100
2023-05-05T10:36:34.185Z,100
2023-05-05T10:38:13.998Z,100
2023-05-05T10:39:53.812Z,100
2023-05-05T10:41:33.368Z,100
2023-05-05T10:43:13.154Z,100
2023-05-05T10:44:52.912Z,100
2023-05-05T10:46:32.683Z,100
2023-05-05T10:48:12.457Z,100
2023-05-05T10:49:52.248Z,100
2023-05-05T10:51:32.023Z,100
2023-05-05T10:53:11.770Z,100
2023-05-05T10:54:51.537Z,100
2023-05-05T10:56:31.329Z,100
2023-05-05T10:58:11.092Z,100
2023-05-05T10:59:50.836Z,100
2023-05-05T11:01:30.611Z,100
2023-05-05T11:03:10.387Z,100
2023-05-05T11:04:50.148Z,100
2023-05-05T11:06:29.919Z,100
2023-05-05T11:08:09.694Z,100
2023-05-05T11:09:49.537Z,100
2023-05-05T11:11:29.257Z,100
2023-05-05T11:13:09.179Z,100
2023-05-05T11:14:48.914Z,100
2023-05-05T11:16:28.620Z,100
2023-05-05T11:18:08.326Z,100
2023-05-05T11:19:48.092Z,100
2023-05-05T11:21:27.863Z,100
2023-05-05T11:23:07.637Z,100
2023-05-05T11:24:47.396Z,100
2023-05-05T11:26:27.174Z,100
2023-05-05T11:28:06.949Z,100
2023-05-05T11:29:46.728Z,100
2023-05-05T11:31:26.480Z,100
2023-05-05T11:33:06.272Z,100
2023-05-05T11:34:46.026Z,100
2023-05-05T11:36:25.803Z,100
2023-05-05T11:38:05.567Z,100
2023-05-05T11:39:45.330Z,100
2023-05-05T11:41:25.126Z,100
2023-05-05T11:43:04.869Z,100
2023-05-05T11:44:44.643Z,100
2023-05-05T11:46:24.431Z,100
2023-05-05T11:48:04.174Z,100
2023-05-05T11:49:43.985Z,100
2023-05-05T11:51:23.732Z,100
2023-05-05T11:53:03.490Z,100
2023-05-05T11:54:43.263Z,100
2023-05-05T11:56:23.041Z,100
2023-05-05T11:58:02.819Z,100
2023-05-05T11:59:42.562Z,100
2023-05-05T12:01:22.348Z,100
2023-05-05T12:03:02.139Z,100
2023-05-05T12:04:41.900Z,100
2023-05-05T12:06:21.655Z,100
2023-05-05T12:08:01.435Z,100
2023-05-05T12:09:41.214Z,100
2023-05-05T12:11:20.979Z,100
2023-05-05T12:13:00.730Z,100
2023-05-05T12:14:40.520Z,100
2023-05-05T12:16:20.279Z,100
2023-05-05T12:18:00.053Z,100
2023-05-05T12:19:39.821Z,100
2023-05-05T12:21:19.618Z,100
2023-05-05T12:22:59.362Z,100
2023-05-05T12:24:39.132Z,100
2023-05-05T12:26:18.924Z,100
2023-05-05T12:27:58.668Z,100
2023-05-05T12:29:38.456Z,100
2023-05-05T12:31:18.232Z,100
2023-05-05T12:32:57.977Z,100
2023-05-05T12:34:37.765Z,100
2023-05-05T12:36:17.519Z,100
2023-05-05T12:37:57.288Z,100
2023-05-05T12:39:37.131Z,100
2023-05-05T12:41:16.853Z,100
2023-05-05T12:42:56.616Z,100
2023-05-05T12:44:36.465Z,100
2023-05-05T12:46:16.253Z,100
2023-05-05T12:47:55.917Z,100
2023-05-05T12:49:35.747Z,100
2023-05-05T12:51:15.465Z,100
2023-05-05T12:52:55.235Z,100
2023-05-05T12:54:34.998Z,100
2023-05-05T12:56:14.783Z,100
2023-05-05T12:57:54.548Z,100
2023-05-05T12:59:34.348Z,100
2023-05-05T13:01:14.084Z,100
2023-05-05T13:02:53.845Z,100
2023-05-05T13:04:33.630Z,100
2023-05-05T13:06:13.398Z,100
2023-05-05T13:07:53.184Z,100
2023-05-05T13:09:32.941Z,100
2023-05-05T13:11:12.719Z,100
2023-05-05T13:12:52.478Z,100
2023-05-05T13:14:32.241Z,100
2023-05-05T13:16:12.020Z,100
2023-05-05T13:17:51.781Z,100
2023-05-05T13:19:31.566Z,100
2023-05-05T13:21:11.341Z,100
2023-05-05T13:22:51.094Z,100
2023-05-05T13:24:30.857Z,100
2023-05-05T13:26:10.636Z,100
2023-05-05T13:27:50.466Z,100
2023-05-05T13:29:30.181Z,100
2023-05-05T13:31:09.933Z,100
2023-05-05T13:32:49.715Z,100
2023-05-05T13:34:29.501Z,100
2023-05-05T13:36:09.260Z,100
2023-05-05T13:37:49.027Z,100
2023-05-05T13:39:28.801Z,100
2023-05-05T13:41:08.617Z,100
2023-05-05T13:42:48.349Z,100
2023-05-05T13:44:28.115Z,100
2023-05-05T13:46:07.880Z,100
2023-05-05T13:47:47.654Z,100
2023-05-05T13:49:27.466Z,100
2023-05-05T13:51:07.214Z,100
2023-05-05T13:52:46.952Z,100
2023-05-05T13:54:26.765Z,100
2023-05-05T13:56:06.507Z,100
2023-05-05T13:57:46.296Z,100
2023-05-05T13:59:26.136Z,100
2023-05-05T14:01:05.811Z,100
2023-05-05T14:02:45.591Z,100
2023-05-05T14:04:25.373Z,100
2023-05-05T14:06:05.124Z,100
2023-05-05T14:07:44.906Z,100
2023-05-05T14:09:24.675Z,100
2023-05-05T14:11:04.438Z,100
2023-05-05T14:12:44.205Z,100
2023-05-05T14:14:23.968Z,100
2023-05-05T14:16:03.749Z,100
2023-05-05T14:17:43.527Z,100
2023-05-05T14:19:23.287Z,100
2023-05-05T14:21:03.073Z,100
2023-05-05T14:22:42.835Z,100
2023-05-05T14:24:22.599Z,100
2023-05-05T14:26:02.399Z,100
2023-05-05T14:27:42.140Z,100
2023-05-05T14:29:21.933Z,100
2023-05-05T14:31:01.683Z,100
2023-05-05T14:32:41.463Z,100
2023-05-05T14:34:21.236Z,100
2023-05-05T14:36:01.051Z,100
2023-05-05T14:37:40.772Z,100
2023-05-05T14:39:20.538Z,100
2023-05-05T14:41:00.363Z,100
2023-05-05T14:42:40.073Z,100
2023-05-05T14:44:19.848Z,100
2023-05-05T14:45:59.617Z,100
2023-05-05T14:47:39.386Z,100
2023-05-05T14:49:19.208Z,100
2023-05-05T14:50:58.936Z,100
2023-05-05T14:52:38.743Z,100
2023-05-05T14:54:18.483Z,100
2023-05-05T14:55:58.252Z,100
2023-05-05T14:57:38.077Z,100
2023-05-05T14:59:17.785Z,100
2023-05-05T15:00:57.559Z,100
2023-05-05T15:02:37.319Z,100
2023-05-05T15:04:17.101Z,100
2023-05-05T15:05:56.902Z,100
2023-05-05T15:07:36.632Z,100
2023-05-05T15:09:16.402Z,100
2023-05-05T15:10:56.177Z,100
2023-05-05T15:12:35.972Z,100
2023-05-05T15:14:15.723Z,100
2023-05-05T15:15:55.488Z,100
2023-05-05T15:17:35.269Z,100
2023-05-05T15:19:15.022Z,100
2023-05-05T15:20:54.815Z,100
2023-05-05T15:22:34.566Z,100
2023-05-05T15:24:14.335Z,100
2023-05-05T15:25:54.108Z,100
2023-05-05T15:27:33.877Z,100
2023-05-05T15:29:13.657Z,100
2023-05-05T15:30:53.417Z,100
2023-05-05T15:32:33.192Z,100
2023-05-05T15:34:12.970Z,100
2023-05-05T15:35:52.729Z,100
2023-05-05T15:37:32.545Z,100
2023-05-05T15:39:12.276Z,100
2023-05-05T15:40:52.042Z,100
2023-05-05T15:42:31.822Z,100
2023-05-05T15:44:11.575Z,100
2023-05-05T15:45:51.350Z,100
2023-05-05T15:47:31.118Z,100
2023-05-05T15:49:10.914Z,100
2023-05-05T15:50:50.653Z,100
2023-05-05T15:52:30.430Z,100
2023-05-05T15:54:10.200Z,100
2023-05-05T15:55:49.989Z,100
2023-05-05T15:57:29.737Z,100
2023-05-05T15:59:09.514Z,100
2023-05-05T16:00:49.279Z,100
2023-05-05T16:02:29.062Z,100
2023-05-05T16:04:08.825Z,100
2023-05-05T16:05:48.599Z,100
2023-05-05T16:07:28.371Z,100
2023-05-05T16:09:08.132Z,100
2023-05-05T16:10:47.917Z,100
2023-05-05T16:12:27.686Z,100
2023-05-05T16:14:07.443Z,100
2023-05-05T16:15:47.227Z,100
2023-05-05T16:17:26.999Z,100
2023-05-05T16:19:06.750Z,100
2023-05-05T16:20:46.540Z,100
2023-05-05T16:22:26.327Z,100
2023-05-05T16:24:06.071Z,100
2023-05-05T16:25:45.832Z,100
2023-05-05T16:27:25.617Z,100
2023-05-05T16:29:05.370Z,100
2023-05-05T16:30:45.162Z,100
2023-05-05T16:32:24.935Z,100
2023-05-05T16:34:04.714Z,100
2023-05-05T16:35:44.489Z,100
2023-05-05T16:37:24.240Z,100
2023-05-05T16:39:04.023Z,100
2023-05-05T16:40:43.764Z,100
2023-05-05T16:42:23.615Z,100
2023-05-05T16:44:03.325Z,100
2023-05-05T16:45:43.146Z,100
2023-05-05T16:47:22.862Z,100
2023-05-05T16:49:02.614Z,100
2023-05-05T16:50:42.397Z,100
2023-05-05T16:52:22.173Z,100
2023-05-05T16:54:01.976Z,100
2023-05-05T16:55:41.713Z,100
2023-05-05T16:57:21.482Z,100
2023-05-05T16:59:01.260Z,100
2023-05-05T17:00:41.027Z,100
2023-05-05T17:02:20.812Z,100
2023-05-05T17:04:00.565Z,100
2023-05-05T17:05:40.340Z,100
2023-05-05T17:07:20.105Z,100
2023-05-05T17:08:59.876Z,100
2023-05-05T17:10:39.639Z,100
2023-05-05T17:12:19.449Z,100
2023-05-05T17:13:59.175Z,100
2023-05-05T17:15:38.970Z,100
2023-05-05T17:17:18.724Z,100
2023-05-05T17:18:58.487Z,100
2023-05-05T17:20:38.353Z,100
2023-05-05T17:22:18.117Z,100
2023-05-05T17:23:57.819Z,100
2023-05-05T17:25:37.589Z,100
2023-05-05T17:27:17.489Z,100
2023-05-05T17:28:57.111Z,100
2023-05-05T17:30:36.882Z,100
2023-05-05T17:32:16.661Z,100
2023-05-05T17:33:56.461Z,100
2023-05-05T17:35:36.199Z,100
2023-05-05T17:37:15.961Z,100
2023-05-05T17:38:55.752Z,100
2023-05-05T17:40:35.515Z,100
2023-05-05T17:42:15.284Z,100
2023-05-05T17:43:55.061Z,100
2023-05-05T17:45:34.811Z,100
2023-05-05T17:47:14.669Z,100
2023-05-05T17:48:54.371Z,100
2023-05-05T17:50:34.123Z,100
2023-05-05T17:52:13.895Z,100
2023-05-05T17:53:53.656Z,100
2023-05-05T17:55:33.490Z,100
2023-05-05T17:57:13.195Z,100
2023-05-05T17:58:52.978Z,100
2023-05-05T18:00:32.744Z,100
2023-05-05T18:02:12.494Z,100
2023-05-05T18:03:52.316Z,100
2023-05-05T18:05:32.070Z,100
2023-05-05T18:07:11.802Z,100
2023-05-05T18:08:51.572Z,100
2023-05-05T18:10:31.349Z,100
2023-05-05T18:12:11.169Z,100
2023-05-05T18:13:50.923Z,100
2023-05-05T18:15:30.814Z,100
2023-05-05T18:17:10.394Z,100
2023-05-05T18:18:50.197Z,98
2023-05-05T18:20:29.940Z,92
2023-05-05T18:22:09.761Z,87
2023-05-05T18:23:49.546Z,87
2023-05-05T18:25:29.273Z,86
2023-05-05T18:27:09.050Z,85
2023-05-05T18:28:48.784Z,85
2023-05-05T18:30:28.560Z,85
2023-05-05T18:32:08.411Z,84
2023-05-05T18:33:48.088Z,84
2023-05-05T18:35:27.845Z,83
2023-05-05T18:37:07.665Z,83
2023-05-05T18:38:47.390Z,83
2023-05-05T18:40:27.162Z,82
2023-05-05T18:42:06.912Z,82
2023-05-05T18:43:46.689Z,81
2023-05-05T18:45:26.456Z,81
2023-05-05T18:47:06.213Z,81
2023-05-05T18:48:45.986Z,81
2023-05-05T18:50:25.757Z,81
2023-05-05T18:52:05.540Z,80
2023-05-05T18:53:45.287Z,80
2023-05-05T18:55:25.058Z,80
2023-05-05T18:57:04.861Z,80
2023-05-05T18:58:44.587Z,80
2023-05-05T19:00:24.455Z,80
2023-05-05T19:02:04.128Z,79
2023-05-05T19:03:43.894Z,79
2023-05-05T19:05:23.817Z,79
2023-05-05T19:07:03.423Z,79
2023-05-05T19:08:43.361Z,79
2023-05-05T19:10:23.077Z,78
2023-05-05T19:12:02.891Z,79
2023-05-05T19:13:42.661Z,78
2023-05-05T19:15:22.429Z,78
2023-05-05T19:17:02.029Z,78
2023-05-05T19:18:41.852Z,78
2023-05-05T19:20:21.815Z,78
2023-05-05T19:22:01.360Z,78
2023-05-05T19:23:41.112Z,78
2023-05-05T19:25:20.999Z,77
2023-05-05T19:27:00.777Z,77
2023-05-05T19:28:40.540Z,77
2023-05-05T19:30:20.389Z,77
2023-05-05T19:32:00.022Z,77
2023-05-05T19:33:39.860Z,77
2023-05-05T19:35:19.563Z,77
2023-05-05T19:36:59.291Z,77
2023-05-05T19:38:39.028Z,77
2023-05-05T19:40:18.781Z,77
2023-05-05T19:41:58.645Z,76
2023-05-05T19:43:38.420Z,77
2023-05-05T19:45:18.188Z,76
2023-05-05T19:46:57.856Z,76
2023-05-05T19:48:37.786Z,76
2023-05-05T19:50:17.381Z,76
2023-05-05T19:51:57.258Z,76
2023-05-05T19:53:37.087Z,76
2023-05-05T19:55:16.887Z,76
2023-05-05T19:56:56.598Z,76
2023-05-05T19:58:36.220Z,76
2023-05-05T20:00:16.187Z,76
2023-05-05T20:01:55.904Z,76
2023-05-05T20:03:35.531Z,76
2023-05-05T20:05:15.296Z,76
2023-05-05T20:06:55.212Z,75
2023-05-05T20:08:35.005Z,75
2023-05-05T20:10:14.658Z,75
2023-05-05T20:11:54.353Z,75
2023-05-05T20:13:34.191Z,75
2023-05-05T20:15:13.987Z,75
2023-05-05T20:16:53.856Z,75
2023-05-05T20:18:33.510Z,75
2023-05-05T20:20:13.194Z,75
2023-05-05T20:21:53.148Z,75
2023-05-05T20:23:32.831Z,75
2023-05-05T20:25:12.673Z,75
2023-05-05T20:26:52.512Z,75
2023-05-05T20:28:32.210Z,75
2023-05-05T20:30:11.898Z,75
2023-05-05T20:31:51.603Z,75
2023-05-05T20:33:31.507Z,75
2023-05-05T20:35:11.282Z,75
2023-05-05T20:36:51.083Z,75
2023-05-05T20:38:30.764Z,75
2023-05-05T20:40:10.466Z,75
2023-05-05T20:41:50.192Z,75
2023-05-05T20:43:29.950Z,74
2023-05-05T20:45:09.906Z,74
2023-05-05T20:46:49.538Z,74
2023-05-05T20:48:29.433Z,74
2023-05-05T20:50:09.022Z,74
2023-05-05T20:51:48.792Z,74
2023-05-05T20:53:28.725Z,74
2023-05-05T20:55:08.495Z,74
2023-05-05T20:56:48.096Z,74
2023-05-05T20:58:27.869Z,74
2023-05-05T21:00:07.806Z,74
2023-05-05T21:01:47.401Z,74
2023-05-05T21:03:27.367Z,74
2023-05-05T21:05:07.073Z,74
2023-05-05T21:06:46.913Z,74
2023-05-05T21:08:26.456Z,74
2023-05-05T21:10:06.433Z,74
2023-05-05T21:11:46.165Z,74
2023-05-05T21:13:25.917Z,74
2023-05-05T21:15:05.543Z,74
2023-05-05T21:16:45.288Z,74
2023-05-05T21:18:25.218Z,74
2023-05-05T21:20:04.842Z,73
2023-05-05T21:21:44.607Z,73
2023-05-05T21:23:24.462Z,73
2023-05-05T21:25:04.278Z,73
2023-05-05T21:26:43.901Z,73
2023-05-05T21:28:23.858Z,73
2023-05-05T21:30:03.421Z,73
2023-05-05T21:31:43.371Z,73
2023-05-05T21:33:23.094Z,73
2023-05-05T21:35:02.865Z,73
2023-05-05T21:36:42.623Z,73
2023-05-05T21:38:22.343Z,73
2023-05-05T21:40:02.047Z,73
2023-05-05T21:41:42.012Z,73
2023-05-05T21:43:21.730Z,73
2023-05-05T21:45:01.530Z,73
2023-05-05T21:46:41.135Z,73
2023-05-05T21:48:21.008Z,73
2023-05-05T21:50:00.711Z,73
2023-05-05T21:51:40.585Z,73
2023-05-05T21:53:20.332Z,73
2023-05-05T21:54:59.971Z,72
2023-05-05T21:56:39.737Z,72
2023-05-05T21:58:19.601Z,72
2023-05-05T21:59:59.367Z,72
2023-05-05T22:01:39.204Z,72
2023-05-05T22:03:18.800Z,72
2023-05-05T22:04:58.712Z,72
2023-05-05T22:06:38.325Z,72
2023-05-05T22:08:18.240Z,72
2023-05-05T22:09:57.852Z,72
2023-05-05T22:11:37.656Z,72
2023-05-05T22:13:17.403Z,72
2023-05-05T22:14:57.151Z,72
2023-05-05T22:16:36.925Z,72
2023-05-05T22:18:16.715Z,72
2023-05-05T22:19:56.473Z,72
2023-05-05T22:21:36.220Z,72
2023-05-05T22:23:15.992Z,72
2023-05-05T22:24:55.745Z,72
2023-05-05T22:26:35.537Z,72
2023-05-05T22:28:15.510Z,72
2023-05-05T22:29:55.290Z,72
2023-05-05T22:31:34.997Z,72
2023-05-05T22:33:14.655Z,72
2023-05-05T22:34:54.359Z,71
2023-05-05T22:36:34.228Z,71
2023-05-05T22:38:14.037Z,71
2023-05-05T22:39:53.743Z,71
2023-05-05T22:41:33.539Z,71
2023-05-05T22:43:13.317Z,71
2023-05-05T22:44:53.124Z,71
2023-05-05T22:46:32.730Z,71
2023-05-05T22:48:12.509Z,71
2023-05-05T22:49:52.336Z,71
2023-05-05T22:51:32.103Z,70
2023-05-05T22:53:11.806Z,71
2023-05-05T22:54:51.698Z,71
2023-05-05T22:56:31.543Z,71
2023-05-05T22:58:11.236Z,71
2023-05-05T22:59:50.964Z,71
2023-05-05T23:01:30.803Z,70
2023-05-05T23:03:10.418Z,71
2023-05-05T23:04:50.321Z,71
2023-05-05T23:06:30.063Z,70
2023-05-05T23:08:09.707Z,70
2023-05-05T23:09:49.646Z,70
2023-05-05T23:11:29.298Z,70
2023-05-05T23:13:09.119Z,70
2023-05-05T23:14:48.868Z,70
2023-05-05T23:16:28.637Z,70
2023-05-05T23:18:08.620Z,70
2023-05-05T23:19:48.179Z,70
2023-05-05T23:21:27.861Z,70